Time;durP1;ratioP1;P1;durP2;ratioP2;P2;SDS_P1;SDS_P2;PMS_P1;PMS_P2;Temp;Humidity;BMP_temperature;BMP_pressure;BME280_temperature;BME280_humidity;BME280_pressure;Samples;Min_cycle;Max_cycle;Signal;HPM_P1;HPM_P2
2022/05/09 00:02:05;;;;;;;0.60;0.20;;;15.60;99.90;;;;;;4974506;28;20496;-73
2022/05/09 00:04:35;;;;;;;5.07;1.80;;;15.50;99.90;;;;;;4972981;28;20439;-76
2022/05/09 00:07:03;;;;;;;0.60;0.10;;;15.50;99.90;;;;;;4955915;28;20517;-74
2022/05/09 00:09:32;;;;;;;0.60;0.10;;;15.50;99.90;;;;;;4953556;29;20450;-74
2022/05/09 00:12:00;;;;;;;7.03;1.23;;;15.50;99.90;;;;;;4953906;29;20455;-74
2022/05/09 00:14:28;;;;;;;0.60;0.10;;;15.50;99.90;;;;;;4953505;29;20587;-76
2022/05/09 00:16:56;;;;;;;0.70;0.30;;;15.40;99.90;;;;;;4953599;28;20454;-74
2022/05/09 00:19:25;;;;;;;0.60;0.10;;;;;;;;;;4953715;29;20446;-76
2022/05/09 00:21:54;;;;;;;0.70;0.20;;;15.30;99.90;;;;;;4956003;28;20471;-76
2022/05/09 00:24:23;;;;;;;0.87;0.30;;;15.30;99.90;;;;;;4961166;28;20784;-74
2022/05/09 00:26:53;;;;;;;0.60;0.10;;;15.30;99.90;;;;;;4982812;28;20491;-76
2022/05/09 00:29:21;;;;;;;0.60;0.20;;;15.20;99.90;;;;;;4984484;28;20455;-74
2022/05/09 00:31:52;;;;;;;0.60;0.20;;;15.20;99.90;;;;;;4972387;28;20509;-75
2022/05/09 00:34:23;;;;;;;0.90;0.70;;;15.20;99.90;;;;;;4972074;28;20670;-75
2022/05/09 00:36:55;;;;;;;0.60;0.20;;;15.20;99.90;;;;;;4972106;28;20532;-75
2022/05/09 00:39:24;;;;;;;0.60;0.10;;;15.10;99.90;;;;;;4974606;28;20446;-76
2022/05/09 00:41:53;;;;;;;0.60;0.10;;;15.10;99.90;;;;;;4972801;28;20469;-77
2022/05/09 00:44:25;;;;;;;0.60;0.10;;;15.10;99.90;;;;;;4971491;28;20466;-74
2022/05/09 00:46:55;;;;;;;0.60;0.20;;;15.00;99.90;;;;;;4971880;28;20498;-77
2022/05/09 00:49:27;;;;;;;0.70;0.50;;;15.00;99.90;;;;;;4974517;28;20474;-75
2022/05/09 00:52:02;;;;;;;1.00;0.63;;;15.00;99.90;;;;;;4983840;28;20952;-73
2022/05/09 00:54:36;;;;;;;1.00;0.37;;;14.90;99.90;;;;;;4972209;28;20476;-75
2022/05/09 00:57:14;;;;;;;0.60;0.10;;;14.90;99.90;;;;;;4950351;28;20467;-75
2022/05/09 00:59:43;;;;;;;0.60;0.20;;;14.90;99.90;;;;;;4952977;28;20458;-76
2022/05/09 01:02:14;;;;;;;0.60;0.20;;;14.90;99.90;;;;;;4953590;29;20538;-76
2022/05/09 01:04:48;;;;;;;0.60;0.10;;;14.90;99.90;;;;;;4966714;28;20513;-76
2022/05/09 01:07:17;;;;;;;0.60;0.20;;;14.80;99.90;;;;;;4972166;28;20489;-76
2022/05/09 01:09:46;;;;;;;0.60;0.20;;;14.80;99.90;;;;;;4972936;28;20449;-76
2022/05/09 01:12:19;;;;;;;0.60;0.10;;;14.80;99.90;;;;;;4973604;28;20538;-75
2022/05/09 01:14:48;;;;;;;0.60;0.20;;;14.80;99.90;;;;;;4972808;28;20454;-76
2022/05/09 01:17:19;;;;;;;0.60;0.10;;;14.70;99.90;;;;;;4971174;28;21011;-76
2022/05/09 01:19:47;;;;;;;0.70;0.20;;;14.70;99.90;;;;;;4952661;28;20509;-76
2022/05/09 01:22:23;;;;;;;1.47;0.53;;;14.70;99.90;;;;;;4952853;28;20531;-75
2022/05/09 01:24:51;;;;;;;0.60;0.20;;;14.70;99.90;;;;;;4952617;28;20522;-76
2022/05/09 01:27:20;;;;;;;0.60;0.10;;;14.60;99.90;;;;;;4980610;28;20480;-75
2022/05/09 01:29:54;;;;;;;0.60;0.10;;;14.60;99.90;;;;;;4991523;28;20458;-76
2022/05/09 01:32:28;;;;;;;0.60;0.10;;;14.60;99.90;;;;;;4982984;28;20446;-76
2022/05/09 01:35:03;;;;;;;0.90;0.53;;;14.60;99.90;;;;;;4971578;28;20442;-75
2022/05/09 01:37:42;;;;;;;0.60;0.10;;;14.60;99.90;;;;;;4970454;28;20462;-75
2022/05/09 01:40:11;;;;;;;0.60;0.20;;;14.60;99.90;;;;;;4971669;28;20438;-75
2022/05/09 01:42:42;;;;;;;0.70;0.47;;;14.60;99.90;;;;;;4972021;28;21004;-75
2022/05/09 01:45:12;;;;;;;0.60;0.10;;;14.60;99.90;;;;;;4973364;28;20438;-74
2022/05/09 01:50:25;;;;;;;0.60;0.10;;;14.50;99.90;;;;;;4974995;28;20454;-75
2022/05/09 01:52:55;;;;;;;0.80;0.37;;;14.50;99.90;;;;;;4976368;28;20462;-75
2022/05/09 01:55:24;;;;;;;0.60;0.20;;;14.40;99.90;;;;;;4975266;28;20471;-77
2022/05/09 01:57:52;;;;;;;0.60;0.20;;;14.40;99.90;;;;;;4974957;28;20494;-75
2022/05/09 02:00:20;;;;;;;0.60;0.40;;;14.40;99.90;;;;;;4975514;28;20463;-76
2022/05/09 02:02:48;;;;;;;0.60;0.13;;;14.40;99.90;;;;;;4975363;28;20965;-76
2022/05/09 02:05:16;;;;;;;0.60;0.20;;;14.40;99.90;;;;;;4975042;28;20812;-75
2022/05/09 02:07:46;;;;;;;0.60;0.10;;;14.40;99.90;;;;;;4975296;28;20517;-75
2022/05/09 02:10:16;;;;;;;0.60;0.20;;;14.40;99.90;;;;;;4977260;28;20454;-77
2022/05/09 02:12:44;;;;;;;13.57;0.83;;;14.30;99.90;;;;;;4976617;28;20529;-77
2022/05/09 02:15:12;;;;;;;0.60;0.20;;;14.30;99.90;;;;;;4976693;28;20457;-75
2022/05/09 02:17:40;;;;;;;0.60;0.10;;;14.30;99.90;;;;;;4976190;28;20474;-76
2022/05/09 02:20:10;;;;;;;0.60;0.10;;;14.20;99.90;;;;;;4974097;28;20533;-75
2022/05/09 02:22:40;;;;;;;0.60;0.20;;;14.20;99.90;;;;;;4987004;28;20752;-75
2022/05/09 02:27:54;;;;;;;0.60;0.10;;;14.20;99.90;;;;;;4974999;28;20586;-76
2022/05/09 02:30:22;;;;;;;0.60;0.10;;;14.30;99.90;;;;;;4975220;28;20450;-75
2022/05/09 02:32:52;;;;;;;0.60;0.33;;;14.20;99.90;;;;;;4976443;28;20445;-75
2022/05/09 02:35:22;;;;;;;0.60;0.20;;;14.20;99.90;;;;;;4976538;28;20504;-76
2022/05/09 02:37:53;;;;;;;0.60;0.10;;;14.20;99.90;;;;;;4981247;28;20469;-75
2022/05/09 02:40:21;;;;;;;0.60;0.10;;;14.20;99.90;;;;;;4983387;28;20460;-76
2022/05/09 02:42:49;;;;;;;0.60;0.10;;;;;;;;;;4988372;28;20450;-76
2022/05/09 02:45:19;;;;;;;0.60;0.10;;;14.10;1.00;;;;;;4975375;28;20458;-78
2022/05/09 02:47:47;;;;;;;0.60;0.10;;;14.10;1.00;;;;;;4975376;28;20536;-76
2022/05/09 02:50:15;;;;;;;0.70;0.33;;;14.10;1.00;;;;;;4977281;28;20458;-74
2022/05/09 02:52:44;;;;;;;0.77;0.77;;;14.10;1.00;;;;;;4988887;28;20477;-75
2022/05/09 02:55:12;;;;;;;0.60;0.10;;;14.10;1.00;;;;;;4981042;28;20537;-76
2022/05/09 02:57:40;;;;;;;0.60;0.20;;;14.10;1.00;;;;;;4976617;28;20482;-76
2022/05/09 03:00:14;;;;;;;0.60;0.10;;;14.10;1.00;;;;;;4975507;28;20533;-76
2022/05/09 03:05:32;;;;;;;0.60;0.20;;;14.00;1.00;;;;;;4985917;28;20520;-75
2022/05/09 03:08:01;;;;;;;0.60;0.10;;;13.90;1.00;;;;;;4994089;28;20477;-75
2022/05/09 03:10:31;;;;;;;0.60;0.30;;;13.90;1.00;;;;;;4994740;28;20471;-77
2022/05/09 03:13:00;;;;;;;1.10;1.00;;;13.80;1.00;;;;;;4975941;28;20541;-75
2022/05/09 03:15:29;;;;;;;0.60;0.10;;;13.80;1.00;;;;;;4982547;28;20442;-75
2022/05/09 03:17:58;;;;;;;0.70;0.30;;;13.80;1.00;;;;;;4973474;28;20845;-75
2022/05/09 03:20:26;;;;;;;0.60;0.10;;;13.80;1.00;;;;;;4973947;28;20787;-76
2022/05/09 03:22:54;;;;;;;0.70;0.20;;;13.80;1.00;;;;;;4973624;28;20533;-76
2022/05/09 03:25:22;;;;;;;0.70;0.30;;;13.80;1.00;;;;;;4973196;28;20454;-76
2022/05/09 03:27:50;;;;;;;0.67;0.30;;;13.80;1.00;;;;;;4982687;28;20485;-75
2022/05/09 03:30:21;;;;;;;0.60;0.30;;;13.80;1.00;;;;;;4989701;28;20473;-73
2022/05/09 03:32:48;;;;;;;0.60;0.10;;;13.70;1.00;;;;;;4991000;28;20446;-75
2022/05/09 03:35:18;;;;;;;0.60;0.10;;;13.70;1.00;;;;;;4973632;28;20461;-75
2022/05/09 03:37:46;;;;;;;0.60;0.13;;;13.70;1.00;;;;;;4973937;28;20557;-74
2022/05/09 03:40:14;;;;;;;0.60;0.10;;;13.80;1.00;;;;;;4980097;28;20449;-76
2022/05/09 03:42:42;;;;;;;3.43;1.57;;;13.70;1.00;;;;;;4956793;29;20467;-74
2022/05/09 03:45:10;;;;;;;0.87;0.47;;;13.80;1.00;;;;;;4954469;28;20455;-77
2022/05/09 03:47:38;;;;;;;0.60;0.10;;;13.80;1.00;;;;;;4953966;28;20531;-75
2022/05/09 03:50:09;;;;;;;0.60;0.10;;;13.80;1.00;;;;;;4956542;28;20490;-75
2022/05/09 03:52:38;;;;;;;1.33;1.23;;;13.80;1.00;;;;;;5012615;22;20523;-71
2022/05/09 03:55:07;;;;;;;0.60;0.10;;;13.80;1.00;;;;;;4991616;28;20449;-72
2022/05/09 03:57:35;;;;;;;0.60;0.10;;;;;;;;;;4990832;28;20465;-73
2022/05/09 04:00:07;;;;;;;0.70;0.30;;;13.80;1.00;;;;;;4991473;28;20439;-72
2022/05/09 04:02:35;;;;;;;0.60;0.20;;;13.80;1.00;;;;;;5007853;28;20507;-74
2022/05/09 04:05:03;;;;;;;0.60;0.10;;;13.70;1.00;;;;;;5008616;28;20467;-75
2022/05/09 04:07:31;;;;;;;1.73;0.50;;;13.70;1.00;;;;;;5008930;28;20942;-72
2022/05/09 04:10:06;;;;;;;0.60;0.10;;;13.70;1.00;;;;;;5009015;28;20507;-74
2022/05/09 04:12:34;;;;;;;0.60;0.20;;;13.70;1.00;;;;;;5019245;28;20464;-73
2022/05/09 04:17:47;;;;;;;0.60;0.10;;;13.80;1.00;;;;;;5009253;28;20535;-73
2022/05/09 04:20:15;;;;;;;0.60;0.20;;;13.80;1.00;;;;;;5010860;28;20891;-73
2022/05/09 04:22:43;;;;;;;0.60;0.10;;;13.70;1.00;;;;;;5010848;28;20476;-73
2022/05/09 04:25:12;;;;;;;0.60;0.20;;;13.70;1.00;;;;;;5005532;28;20460;-73
2022/05/09 04:27:40;;;;;;;0.60;0.13;;;13.70;1.00;;;;;;5010391;28;20539;-72
2022/05/09 04:30:11;;;;;;;0.60;0.20;;;13.80;1.00;;;;;;5010630;28;20511;-74
2022/05/09 04:32:40;;;;;;;0.60;0.10;;;13.80;1.00;;;;;;5015330;28;20811;-74
2022/05/09 04:35:11;;;;;;;0.60;0.20;;;13.80;1.00;;;;;;5021822;28;20807;-72
2022/05/09 04:37:42;;;;;;;0.70;0.20;;;13.80;1.00;;;;;;5034366;28;20488;-72
2022/05/09 04:40:12;;;;;;;0.60;0.10;;;13.90;1.00;;;;;;5032232;28;20436;-72
2022/05/09 04:42:40;;;;;;;0.70;0.30;;;14.00;1.00;;;;;;5032020;28;20474;-72
2022/05/09 04:45:10;;;;;;;0.60;0.30;;;14.10;1.00;;;;;;5022711;28;20460;-72
2022/05/09 04:47:37;;;;;;;0.60;0.10;;;14.20;1.00;;;;;;5003185;28;20864;-71
2022/05/09 04:50:07;;;;;;;0.80;0.60;;;14.20;1.00;;;;;;5011314;28;20579;-72
2022/05/09 04:52:35;;;;;;;0.60;0.10;;;14.30;1.00;;;;;;5011825;28;20484;-72
2022/05/09 04:55:04;;;;;;;0.60;0.20;;;14.50;1.00;;;;;;5013924;28;20984;-72
2022/05/09 04:57:34;;;;;;;0.70;0.50;;;14.50;1.00;;;;;;5013067;28;20470;-71
2022/05/09 05:00:02;;;;;;;0.80;0.17;;;14.50;1.00;;;;;;4999978;28;20449;-70
2022/05/09 05:02:31;;;;;;;0.60;0.20;;;14.50;1.00;;;;;;4991994;28;20512;-74
2022/05/09 05:04:59;;;;;;;0.60;0.20;;;14.40;99.90;;;;;;4991563;28;20456;-74
2022/05/09 05:07:27;;;;;;;0.60;0.10;;;14.40;99.90;;;;;;4991082;28;20449;-74
2022/05/09 05:09:55;;;;;;;0.60;0.10;;;14.30;99.90;;;;;;4991532;28;20968;-75
2022/05/09 05:12:23;;;;;;;0.60;0.10;;;14.30;99.90;;;;;;4992120;28;20480;-73
2022/05/09 05:14:52;;;;;;;0.60;0.10;;;14.30;1.00;;;;;;5002160;28;20458;-73
2022/05/09 05:17:20;;;;;;;0.60;0.10;;;14.20;1.00;;;;;;5010223;28;20938;-70
2022/05/09 05:19:49;;;;;;;0.60;0.10;;;14.20;1.00;;;;;;4995651;28;20508;-74
2022/05/09 05:22:17;;;;;;;1.20;0.50;;;14.30;1.00;;;;;;5007675;28;20471;-75
2022/05/09 05:24:47;;;;;;;0.60;0.17;;;14.30;1.00;;;;;;5022272;28;20440;-74
2022/05/09 05:27:14;;;;;;;0.60;0.10;;;14.30;1.00;;;;;;5040175;28;20458;-74
2022/05/09 05:29:42;;;;;;;0.60;0.10;;;14.30;1.00;;;;;;5014647;28;20492;-75
2022/05/09 05:32:16;;;;;;;0.60;0.20;;;14.40;1.00;;;;;;5013361;28;20468;-74
2022/05/09 05:34:43;;;;;;;0.60;0.10;;;14.40;1.00;;;;;;5016298;28;20449;-76
2022/05/09 05:37:11;;;;;;;0.60;0.10;;;14.40;1.00;;;;;;5011053;28;20444;-72
2022/05/09 05:39:41;;;;;;;0.60;0.20;;;14.40;1.00;;;;;;5014584;28;20452;-73
2022/05/09 05:42:09;;;;;;;0.60;0.10;;;14.40;1.00;;;;;;5015576;28;20476;-76
2022/05/09 05:44:38;;;;;;;0.70;0.57;;;14.40;1.00;;;;;;5015569;28;20455;-77
2022/05/09 05:47:07;;;;;;;0.60;0.10;;;14.40;1.00;;;;;;5014427;28;20968;-75
2022/05/09 05:49:38;;;;;;;0.60;0.10;;;14.40;1.00;;;;;;5021118;28;20463;-75
2022/05/09 05:52:07;;;;;;;0.60;0.40;;;14.60;1.00;;;;;;5029394;28;20471;-76
2022/05/09 05:54:39;;;;;;;0.60;0.10;;;14.70;1.00;;;;;;5034499;28;20921;-76
2022/05/09 05:57:08;;;;;;;0.60;0.20;;;14.80;1.00;;;;;;5003869;28;20532;-75
2022/05/09 05:59:36;;;;;;;1.37;0.37;;;14.90;1.00;;;;;;4994287;28;20446;-76
2022/05/09 06:02:04;;;;;;;0.60;0.10;;;15.00;1.00;;;;;;4995287;28;20492;-76
2022/05/09 06:04:33;;;;;;;0.60;0.20;;;15.10;1.00;;;;;;4994533;28;20501;-75
2022/05/09 06:07:02;;;;;;;0.60;0.10;;;15.20;1.00;;;;;;4995293;28;20832;-76
2022/05/09 06:09:29;;;;;;;0.60;0.10;;;15.30;1.00;;;;;;4995383;28;20472;-76
2022/05/09 06:11:58;;;;;;;0.60;0.10;;;15.40;99.90;;;;;;4997239;28;20476;-75
2022/05/09 06:14:26;;;;;;;0.60;0.13;;;15.40;99.90;;;;;;4997644;28;20450;-77
2022/05/09 06:16:54;;;;;;;0.60;0.10;;;15.60;99.90;;;;;;5015205;28;20452;-75
2022/05/09 06:19:24;;;;;;;0.60;0.13;;;15.70;1.00;;;;;;5022720;28;20454;-75
2022/05/09 06:21:52;;;;;;;0.60;0.20;;;15.90;99.90;;;;;;5027725;28;20475;-75
2022/05/09 06:24:21;;;;;;;0.60;0.10;;;15.90;99.90;;;;;;5022904;28;20456;-76
2022/05/09 06:26:50;;;;;;;0.60;0.10;;;16.00;99.90;;;;;;5028803;28;20440;-76
2022/05/09 06:29:18;;;;;;;0.60;0.10;;;16.00;99.90;;;;;;5038886;28;20538;-75
2022/05/09 06:32:06;;;;;;;0.60;0.10;;;16.20;99.90;;;;;;5038022;28;20460;-75
2022/05/09 06:34:34;;;;;;;0.60;0.10;;;16.20;99.90;;;;;;5036555;28;20455;-75
2022/05/09 06:37:02;;;;;;;0.77;0.40;;;16.10;99.90;;;;;;5033698;28;20958;-75
2022/05/09 06:39:32;;;;;;;0.60;0.10;;;16.10;99.90;;;;;;5019055;28;20456;-76
2022/05/09 06:41:59;;;;;;;0.60;0.10;;;16.20;99.90;;;;;;5015811;28;21005;-77
2022/05/09 06:44:27;;;;;;;0.60;0.20;;;16.20;99.90;;;;;;5016595;28;21068;-76
2022/05/09 06:46:55;;;;;;;0.60;0.10;;;16.20;99.90;;;;;;5021011;28;20458;-76
2022/05/09 06:49:23;;;;;;;0.60;0.20;;;16.20;99.90;;;;;;5017717;28;20531;-75
2022/05/09 06:51:51;;;;;;;0.60;0.20;;;16.30;99.90;;;;;;4994297;28;20497;-75
2022/05/09 06:54:21;;;;;;;0.60;0.10;;;16.30;99.90;;;;;;5006599;28;20541;-75
2022/05/09 06:56:51;;;;;;;0.60;0.10;;;16.40;99.90;;;;;;5015021;28;20569;-75
2022/05/09 06:59:19;;;;;;;0.60;0.10;;;16.40;99.90;;;;;;5015193;28;20466;-75
2022/05/09 07:01:48;;;;;;;0.60;0.10;;;16.50;99.90;;;;;;5013380;28;20555;-76
2022/05/09 07:04:16;;;;;;;0.60;0.10;;;16.50;99.90;;;;;;5013021;28;21075;-76
2022/05/09 07:06:44;;;;;;;0.60;0.10;;;16.50;99.90;;;;;;5013622;28;20448;-75
2022/05/09 07:09:15;;;;;;;0.60;0.10;;;16.50;99.90;;;;;;5013514;28;20453;-75
2022/05/09 07:11:43;;;;;;;0.60;0.10;;;16.60;99.90;;;;;;5000076;28;20501;-75
2022/05/09 07:14:12;;;;;;;0.60;0.10;;;16.70;99.90;;;;;;5013157;28;20446;-74
2022/05/09 07:16:40;;;;;;;0.60;0.20;;;16.60;99.90;;;;;;5009518;28;20454;-73
2022/05/09 07:19:08;;;;;;;0.60;0.20;;;16.70;99.90;;;;;;4994270;28;20469;-76
2022/05/09 07:21:36;;;;;;;0.60;0.10;;;16.70;99.90;;;;;;5007025;28;20520;-76
2022/05/09 07:24:04;;;;;;;0.60;0.10;;;16.80;99.90;;;;;;5026873;28;20447;-76
2022/05/09 07:26:33;;;;;;;0.60;0.10;;;18.30;99.90;;;;;;5008447;28;20948;-75
2022/05/09 07:29:01;;;;;;;0.60;0.10;;;16.90;99.90;;;;;;5014759;28;20445;-76
2022/05/09 07:31:31;;;;;;;0.60;0.10;;;17.00;99.90;;;;;;5014367;28;20490;-75
2022/05/09 07:33:59;;;;;;;0.70;0.53;;;17.00;99.90;;;;;;5014948;28;20448;-75
2022/05/09 07:36:27;;;;;;;0.60;0.10;;;17.00;99.90;;;;;;5014208;28;20458;-75
2022/05/09 07:38:55;;;;;;;0.60;0.10;;;17.10;99.90;;;;;;5013282;28;20499;-75
2022/05/09 07:41:23;;;;;;;0.60;0.10;;;17.20;99.90;;;;;;5016194;28;20465;-75
2022/05/09 07:43:51;;;;;;;0.60;0.17;;;17.30;99.90;;;;;;5018390;28;20452;-75
2022/05/09 07:46:23;;;;;;;0.60;0.10;;;17.30;99.90;;;;;;5017590;28;20547;-75
2022/05/09 07:49:12;;;;;;;0.60;0.10;;;17.40;99.90;;;;;;5014385;28;20464;-74
2022/05/09 07:51:40;;;;;;;0.60;0.10;;;17.50;99.90;;;;;;4994584;28;20499;-75
2022/05/09 07:54:09;;;;;;;0.60;0.10;;;17.60;99.90;;;;;;5000473;28;20439;-76
2022/05/09 07:56:43;;;;;;;0.60;0.10;;;17.70;99.90;;;;;;5012614;28;20456;-75
2022/05/09 07:59:14;;;;;;;0.70;0.70;;;17.80;99.90;;;;;;5032585;28;20474;-75
2022/05/09 08:01:42;;;;;;;0.60;0.20;;;17.80;99.90;;;;;;4999067;28;20479;-75
2022/05/09 08:04:12;;;;;;;0.60;0.20;;;17.80;99.90;;;;;;5021846;28;20768;-75
2022/05/09 08:06:40;;;;;;;0.60;0.10;;;;;;;;;;5033534;28;20541;-75
2022/05/09 08:09:11;;;;;;;0.60;0.13;;;17.90;99.90;;;;;;5034088;28;20447;-75
2022/05/09 08:11:40;;;;;;;0.60;0.10;;;18.10;99.90;;;;;;5032613;28;20475;-75
2022/05/09 08:14:09;;;;;;;0.60;0.10;;;18.10;99.90;;;;;;5015095;28;20572;-77
2022/05/09 08:16:43;;;;;;;0.60;0.10;;;18.20;99.90;;;;;;5012569;28;20454;-75
2022/05/09 08:19:15;;;;;;;0.60;0.20;;;;;;;;;;5021254;28;20442;-76
2022/05/09 08:21:44;;;;;;;0.60;0.10;;;18.30;99.90;;;;;;5032221;28;20554;-73
2022/05/09 08:24:12;;;;;;;0.60;0.10;;;18.40;99.90;;;;;;5019343;28;20469;-72
2022/05/09 08:26:43;;;;;;;0.60;0.10;;;17.50;99.90;;;;;;5009128;28;20843;-72
2022/05/09 08:29:12;;;;;;;0.60;0.10;;;18.50;99.90;;;;;;5015203;28;20462;-71
2022/05/09 08:31:40;;;;;;;0.60;0.10;;;18.50;99.90;;;;;;5008632;28;20568;-72
2022/05/09 08:34:10;;;;;;;0.70;0.50;;;18.40;99.90;;;;;;5020370;28;20459;-73
2022/05/09 08:36:48;;;;;;;0.60;0.10;;;18.40;99.90;;;;;;5030309;28;20626;-74
2022/05/09 08:39:17;;;;;;;0.60;0.10;;;18.40;99.90;;;;;;5031619;28;20526;-72
2022/05/09 08:41:53;;;;;;;0.60;0.10;;;18.40;99.90;;;;;;5028560;28;20459;-73
2022/05/09 08:44:41;;;;;;;0.60;0.10;;;18.40;99.90;;;;;;5014140;28;20454;-72
2022/05/09 08:47:38;;;;;;;0.60;0.10;;;18.40;99.90;;;;;;5011824;28;20445;-72
2022/05/09 08:50:17;;;;;;;0.60;0.20;;;18.40;99.90;;;;;;4997499;28;20938;-72
2022/05/09 08:52:53;;;;;;;0.60;0.10;;;18.40;99.90;;;;;;5011266;28;20492;-72
2022/05/09 08:55:27;;;;;;;0.60;0.10;;;18.50;99.90;;;;;;5011062;28;20460;-72
2022/05/09 08:58:00;;;;;;;0.60;0.20;;;18.50;99.90;;;;;;4993067;28;20465;-73
2022/05/09 09:00:30;;;;;;;0.60;0.20;;;18.50;99.90;;;;;;4991886;28;20507;-73
2022/05/09 09:03:03;;;;;;;0.60;0.20;;;18.60;99.90;;;;;;5018866;28;20483;-72
2022/05/09 09:05:35;;;;;;;0.60;0.10;;;18.60;99.90;;;;;;5022224;28;20440;-71
2022/05/09 09:08:14;;;;;;;0.60;0.20;;;18.70;99.90;;;;;;5036420;28;20457;-72
2022/05/09 09:10:51;;;;;;;0.60;0.13;;;16.40;99.90;;;;;;5023551;28;20456;-72
2022/05/09 09:13:31;;;;;;;0.60;0.10;;;18.80;99.90;;;;;;5012579;28;20470;-71
2022/05/09 09:16:15;;;;;;;0.60;0.10;;;18.90;99.90;;;;;;4997723;28;20537;-73
2022/05/09 09:18:57;;;;;;;0.60;0.20;;;18.90;99.90;;;;;;4995652;28;20525;-71
2022/05/09 09:21:40;;;;;;;0.60;0.10;;;19.00;99.90;;;;;;4996236;28;20479;-72
2022/05/09 09:24:24;;;;;;;0.60;0.20;;;19.00;99.90;;;;;;4995465;28;20446;-73
2022/05/09 09:27:02;;;;;;;0.60;0.10;;;19.20;99.90;;;;;;5016706;28;20549;-73
2022/05/09 09:29:33;;;;;;;0.60;0.17;;;19.20;99.90;;;;;;5000589;28;20445;-72
2022/05/09 09:32:05;;;;;;;0.60;0.20;;;19.20;99.90;;;;;;4996759;28;20515;-74
2022/05/09 09:34:40;;;;;;;0.60;0.10;;;19.20;99.90;;;;;;4996927;28;20478;-73
2022/05/09 09:37:12;;;;;;;0.60;0.10;;;19.30;99.90;;;;;;4996745;28;20456;-73
2022/05/09 09:39:43;;;;;;;0.70;0.53;;;19.30;99.90;;;;;;5003419;28;20476;-73
2022/05/09 09:42:11;;;;;;;0.60;0.10;;;19.50;99.90;;;;;;5026239;28;20475;-73
2022/05/09 09:44:44;;;;;;;0.60;0.10;;;19.50;99.90;;;;;;5028095;28;20464;-74
2022/05/09 09:47:21;;;;;;;0.60;0.10;;;19.60;99.90;;;;;;5024252;28;20808;-73
2022/05/09 09:50:19;;;;;;;0.60;0.10;;;19.70;99.90;;;;;;5014112;28;20536;-73
2022/05/09 09:52:51;;;;;;;0.60;0.20;;;19.70;99.90;;;;;;5013459;28;20486;-73
2022/05/09 09:55:25;;;;;;;0.60;0.10;;;19.70;99.90;;;;;;4995939;28;20492;-74
2022/05/09 09:57:54;;;;;;;0.60;0.10;;;19.80;99.90;;;;;;4994603;28;20449;-74
2022/05/09 10:00:26;;;;;;;0.60;0.10;;;19.80;99.90;;;;;;4995165;28;20443;-75
2022/05/09 10:02:56;;;;;;;0.70;0.10;;;19.90;99.90;;;;;;4995331;28;20466;-74
2022/05/09 10:05:34;;;;;;;0.60;0.10;;;20.00;99.90;;;;;;5004457;28;20496;-73
2022/05/09 10:08:17;;;;;;;0.67;0.20;;;20.00;99.90;;;;;;5013296;28;20551;-73
2022/05/09 10:10:57;;;;;;;0.70;0.20;;;20.20;99.90;;;;;;5015123;28;20452;-77
2022/05/09 10:13:24;;;;;;;0.70;0.20;;;20.20;99.90;;;;;;5002506;28;20482;-75
2022/05/09 10:16:04;;;;;;;0.70;0.20;;;20.30;99.90;;;;;;4994740;28;20462;-74
2022/05/09 10:18:34;;;;;;;0.70;0.20;;;20.40;99.90;;;;;;5018095;28;20480;-74
2022/05/09 10:26:58;;;;;;;0.70;0.10;;;20.80;99.90;;;;;;5049251;28;20505;-75
2022/05/09 10:29:32;;;;;;;0.70;0.10;;;20.80;99.90;;;;;;5053492;28;20450;-75
2022/05/09 10:32:03;;;;;;;0.80;0.30;;;20.90;99.90;;;;;;5037224;28;20461;-74
2022/05/09 10:34:39;;;;;;;0.70;0.10;;;21.00;99.90;;;;;;5034207;28;20447;-73
2022/05/09 10:37:15;;;;;;;0.70;0.10;;;20.90;99.90;;;;;;5033561;28;20449;-75
2022/05/09 10:39:48;;;;;;;0.70;0.10;;;20.90;99.90;;;;;;5033472;28;20762;-74
2022/05/09 10:42:33;;;;;;;0.70;0.20;;;21.00;99.90;;;;;;5034282;28;20998;-74
2022/05/09 10:45:10;;;;;;;0.70;0.10;;;21.20;99.90;;;;;;5008079;28;20454;-74
2022/05/09 10:47:45;;;;;;;0.70;0.20;;;21.20;99.90;;;;;;5007762;28;20459;-73
2022/05/09 10:50:20;;;;;;;0.70;0.20;;;21.40;99.90;;;;;;5013193;28;20449;-73
2022/05/09 10:52:59;;;;;;;0.70;0.20;;;21.50;99.90;;;;;;5008533;28;20477;-74
2022/05/09 10:55:34;;;;;;;0.70;0.20;;;21.60;99.90;;;;;;5013474;28;21033;-73
2022/05/09 10:58:08;;;;;;;0.70;0.20;;;21.70;99.90;;;;;;5012958;28;20899;-73
2022/05/09 11:00:42;;;;;;;0.70;0.10;;;21.80;99.90;;;;;;5000877;28;20453;-76
2022/05/09 11:03:21;;;;;;;0.80;0.43;;;21.80;99.90;;;;;;5007354;28;20451;-74
2022/05/09 11:06:16;;;;;;;0.70;0.10;;;21.90;99.90;;;;;;5013856;28;20909;-74
2022/05/09 11:09:00;;;;;;;0.70;0.10;;;;;;;;;;5021321;28;20467;-73
2022/05/09 11:11:33;;;;;;;0.70;0.10;;;22.00;99.90;;;;;;5013178;28;20624;-74
2022/05/09 11:14:14;;;;;;;0.70;0.30;;;22.00;99.90;;;;;;5021577;28;20493;-76
2022/05/09 11:16:58;;;;;;;0.70;0.20;;;22.10;99.90;;;;;;5004938;28;20952;-74
2022/05/09 11:19:43;;;;;;;0.80;0.40;;;22.10;99.90;;;;;;5027860;28;20443;-74
2022/05/09 11:22:25;;;;;;;0.90;0.40;;;22.20;99.90;;;;;;5025971;28;20463;-73
2022/05/09 11:25:05;;;;;;;0.70;0.10;;;22.20;99.90;;;;;;5013620;28;20510;-74
2022/05/09 11:27:47;;;;;;;0.70;0.20;;;22.20;99.90;;;;;;5015463;28;20455;-76
2022/05/09 11:30:29;;;;;;;0.80;0.40;;;22.20;99.90;;;;;;5002353;28;20910;-74
2022/05/09 11:33:20;;;;;;;0.70;0.10;;;22.40;99.90;;;;;;5011100;28;20492;-73
2022/05/09 11:35:58;;;;;;;0.70;0.10;;;22.40;99.90;;;;;;5016620;28;20443;-74
2022/05/09 11:38:41;;;;;;;0.70;0.20;;;22.50;99.90;;;;;;5032454;28;20823;-75
2022/05/09 11:41:25;;;;;;;0.70;0.10;;;22.70;99.90;;;;;;5002215;28;20487;-75
2022/05/09 11:44:12;;;;;;;0.70;0.17;;;22.70;99.90;;;;;;5021509;28;20466;-73
2022/05/09 11:47:19;;;;;;;0.70;0.40;;;22.70;99.90;;;;;;5010542;28;20460;-74
2022/05/09 11:50:25;;;;;;;0.70;0.10;;;22.70;99.90;;;;;;5005581;28;20551;-74
2022/05/09 11:52:53;;;;;;;0.70;0.10;;;22.70;99.90;;;;;;5001538;28;20497;-73
2022/05/09 11:55:26;;;;;;;0.70;0.10;;;22.80;99.90;;;;;;5015343;28;20459;-75
2022/05/09 11:57:56;;;;;;;0.70;0.20;;;22.90;99.90;;;;;;5018433;28;20572;-75
2022/05/09 12:00:47;;;;;;;0.70;0.10;;;23.00;99.90;;;;;;5013488;28;20447;-74
2022/05/09 12:04:04;;;;;;;1.87;1.60;;;23.10;99.90;;;;;;5012990;28;20958;-74
2022/05/09 12:06:40;;;;;;;0.70;0.17;;;23.10;99.90;;;;;;5017335;28;21085;-75
2022/05/09 12:09:11;;;;;;;0.70;0.10;;;23.20;99.90;;;;;;5027386;28;20445;-74
2022/05/09 12:11:51;;;;;;;0.70;0.20;;;23.20;99.90;;;;;;5032522;28;20953;-74
2022/05/09 12:14:42;;;;;;;0.70;0.20;;;23.30;99.90;;;;;;5032492;28;20495;-75
2022/05/09 12:17:19;;;;;;;0.70;0.10;;;23.30;99.90;;;;;;5022852;28;20908;-73
2022/05/09 12:19:50;;;;;;;0.70;0.13;;;;;;;;;;5015799;28;20457;-74
2022/05/09 12:22:37;;;;;;;0.70;0.20;;;23.40;99.90;;;;;;5014535;28;20503;-74
2022/05/09 12:25:07;;;;;;;0.70;0.10;;;23.50;99.90;;;;;;5012985;28;20436;-73
2022/05/09 12:27:59;;;;;;;0.70;0.10;;;23.50;99.90;;;;;;5029301;28;20445;-74
2022/05/09 12:30:52;;;;;;;0.70;0.20;;;23.60;99.90;;;;;;5025303;28;20610;-73
2022/05/09 12:33:26;;;;;;;0.70;0.17;;;23.60;99.90;;;;;;5009585;28;20570;-73
2022/05/09 12:35:58;;;;;;;0.70;0.10;;;23.80;99.90;;;;;;5032194;28;20443;-74
2022/05/09 12:38:31;;;;;;;0.70;0.20;;;23.70;99.90;;;;;;5031663;28;20505;-72
2022/05/09 12:41:02;;;;;;;0.70;0.10;;;23.50;99.90;;;;;;5000380;28;20476;-73
2022/05/09 12:43:31;;;;;;;0.70;0.10;;;23.40;99.90;;;;;;5023537;28;20519;-71
2022/05/09 12:46:01;;;;;;;0.70;0.10;;;23.40;99.90;;;;;;5031930;28;20454;-73
2022/05/09 12:48:30;;;;;;;0.80;0.40;;;23.60;99.90;;;;;;5011023;28;20458;-74
2022/05/09 12:51:05;;;;;;;0.70;0.20;;;23.70;99.90;;;;;;4992898;28;21028;-73
2022/05/09 12:53:36;;;;;;;0.70;0.10;;;23.70;99.90;;;;;;5009075;28;20479;-74
2022/05/09 12:56:14;;;;;;;0.70;0.10;;;;;;;;;;5011309;28;20457;-74
2022/05/09 12:58:45;;;;;;;0.70;0.20;;;23.50;99.90;;;;;;5023019;28;20442;-75
2022/05/09 13:01:17;;;;;;;0.70;0.10;;;23.40;99.90;;;;;;5025851;28;20492;-75
2022/05/09 13:04:08;;;;;;;0.70;0.20;;;23.40;99.90;;;;;;5014737;28;20633;-76
2022/05/09 13:06:45;;;;;;;0.70;0.10;;;23.50;99.90;;;;;;5019657;28;20461;-75
2022/05/09 13:09:15;;;;;;;0.70;0.10;;;23.60;99.90;;;;;;5016835;28;20937;-76
2022/05/09 13:11:47;;;;;;;0.70;0.20;;;23.80;99.90;;;;;;5012962;28;20562;-74
2022/05/09 13:14:22;;;;;;;0.70;0.20;;;24.00;99.90;;;;;;5017376;28;20482;-75
2022/05/09 13:16:56;;;;;;;0.70;0.20;;;24.10;99.90;;;;;;5016463;28;20495;-75
2022/05/09 13:19:25;;;;;;;0.70;0.10;;;24.10;99.90;;;;;;5014351;28;20939;-73
2022/05/09 13:21:56;;;;;;;0.70;0.10;;;24.20;99.90;;;;;;5011653;28;20474;-73
2022/05/09 13:24:27;;;;;;;0.70;0.10;;;24.20;99.90;;;;;;5013041;28;20454;-74
2022/05/09 13:26:57;;;;;;;0.70;0.10;;;24.20;99.90;;;;;;5026124;28;20443;-74
2022/05/09 13:29:28;;;;;;;0.70;0.10;;;24.40;99.90;;;;;;5036680;28;20424;-73
2022/05/09 13:31:57;;;;;;;0.70;0.20;;;24.50;99.90;;;;;;5035406;28;20509;-75
2022/05/09 13:34:30;;;;;;;0.70;0.10;;;24.50;99.90;;;;;;5033322;28;20606;-75
2022/05/09 13:37:02;;;;;;;0.70;0.20;;;24.70;99.90;;;;;;5028196;28;20466;-74